createdAt,value
2019-06-07T00:01:46.527Z,7.58
2019-06-07T00:04:16.269Z,8.48
2019-06-07T00:06:45.662Z,10.45
2019-06-07T00:09:17.730Z,11.95
2019-06-07T00:11:45.873Z,9.20
2019-06-07T00:14:16.611Z,10.98
2019-06-07T00:16:46.099Z,10.45
2019-06-07T00:19:16.222Z,10.50
2019-06-07T00:22:15.456Z,10.05
2019-06-07T00:24:19.398Z,7.92
2019-06-07T00:26:58.329Z,8.28
2019-06-07T00:29:21.750Z,8.80
2019-06-07T00:31:50.149Z,12.28
2019-06-07T00:34:22.119Z,9.93
2019-06-07T00:36:50.274Z,10.65
2019-06-07T00:39:24.687Z,7.35
2019-06-07T00:41:50.450Z,10.60
2019-06-07T00:44:23.098Z,9.68
2019-06-07T00:46:50.992Z,12.23
2019-06-07T00:49:36.094Z,9.98
2019-06-07T00:51:51.986Z,10.70
2019-06-07T00:54:24.663Z,9.70
2019-06-07T00:56:54.972Z,10.68
2019-06-07T00:59:29.178Z,12.13
2019-06-07T01:01:55.267Z,9.45
2019-06-07T01:04:26.631Z,7.62
2019-06-07T01:06:55.506Z,7.83
2019-06-07T01:09:25.534Z,11.30
2019-06-07T01:11:55.190Z,10.10
2019-06-07T01:14:27.760Z,10.15
2019-06-07T01:17:01.403Z,9.68
2019-06-07T01:19:27.772Z,9.08
2019-06-07T01:21:57.481Z,10.30
2019-06-07T01:24:28.053Z,10.58
2019-06-07T01:26:57.541Z,10.38
2019-06-07T01:29:30.393Z,8.83
2019-06-07T01:31:57.803Z,9.30
2019-06-07T01:34:27.039Z,12.90
2019-06-07T01:36:56.278Z,11.10
2019-06-07T01:39:29.730Z,9.03
2019-06-07T01:41:56.582Z,10.45
2019-06-07T01:44:28.103Z,13.72
2019-06-07T01:46:56.725Z,10.95
2019-06-07T01:49:28.112Z,10.43
2019-06-07T01:51:58.872Z,12.43
2019-06-07T01:54:53.158Z,14.23
2019-06-07T01:56:59.092Z,13.43
2019-06-07T01:59:31.008Z,15.53
2019-06-07T02:01:59.373Z,16.97
2019-06-07T02:04:32.406Z,11.10
2019-06-07T02:06:59.669Z,14.90
2019-06-07T02:09:31.757Z,12.45
2019-06-07T02:11:59.850Z,18.12
2019-06-07T02:14:32.467Z,13.38
2019-06-07T02:16:59.981Z,13.85
2019-06-07T02:19:32.735Z,15.45
2019-06-07T02:22:00.281Z,17.00
2019-06-07T02:24:35.135Z,15.53
2019-06-07T02:27:00.510Z,17.57
2019-06-07T02:29:33.334Z,13.30
2019-06-07T02:32:00.969Z,15.58
2019-06-07T02:34:36.016Z,15.28
2019-06-07T02:37:01.072Z,16.75
2019-06-07T02:39:37.594Z,20.97
2019-06-07T02:42:03.244Z,16.50
2019-06-07T02:44:38.575Z,14.28
2019-06-07T02:47:04.841Z,15.75
2019-06-07T02:49:40.487Z,15.88
2019-06-07T02:52:05.048Z,16.15
2019-06-07T02:54:39.540Z,17.98
2019-06-07T02:57:05.651Z,16.00
2019-06-07T03:00:02.933Z,18.15
2019-06-07T03:02:05.865Z,20.37
2019-06-07T03:04:41.566Z,18.57
2019-06-07T03:07:06.374Z,19.10
2019-06-07T03:09:37.207Z,18.67
2019-06-07T03:12:09.594Z,19.70
2019-06-07T03:14:39.408Z,20.52
2019-06-07T03:17:11.903Z,18.75
2019-06-07T03:22:11.553Z,16.02
2019-06-07T03:24:42.292Z,20.17
2019-06-07T03:29:42.781Z,16.60
2019-06-07T03:32:12.307Z,17.17
2019-06-07T03:34:43.665Z,17.50
2019-06-07T03:37:12.468Z,15.93
2019-06-07T03:39:41.719Z,18.15
2019-06-07T03:42:10.909Z,20.68
2019-06-07T03:44:41.578Z,48.78
2019-06-07T03:47:11.170Z,50.33
2019-06-07T03:49:42.677Z,34.80
2019-06-07T03:52:11.612Z,30.97
2019-06-07T03:54:41.141Z,22.95
2019-06-07T03:57:10.317Z,24.70
2019-06-07T03:59:41.561Z,26.30
2019-06-07T04:02:10.594Z,22.87
2019-06-07T04:04:39.973Z,27.02
2019-06-07T04:07:09.227Z,28.05
2019-06-07T04:09:42.029Z,25.25
2019-06-07T04:12:09.597Z,23.90
2019-06-07T04:14:42.501Z,25.02
2019-06-07T04:17:10.312Z,19.97
2019-06-07T04:19:43.330Z,24.65
2019-06-07T04:22:10.461Z,23.00
2019-06-07T04:24:41.958Z,26.33
2019-06-07T04:27:10.650Z,24.87
2019-06-07T04:30:04.834Z,20.35
2019-06-07T04:32:11.051Z,19.80
2019-06-07T04:34:43.241Z,21.57
2019-06-07T04:37:11.215Z,26.17
2019-06-07T04:39:44.684Z,22.05
2019-06-07T04:42:11.989Z,19.23
2019-06-07T04:44:43.138Z,21.82
2019-06-07T04:47:12.345Z,23.75
2019-06-07T04:49:44.092Z,18.27
2019-06-07T04:52:14.470Z,19.57
2019-06-07T04:54:45.970Z,20.00
2019-06-07T04:57:15.432Z,20.92
2019-06-07T05:00:12.109Z,19.30
2019-06-07T05:02:18.504Z,21.68
2019-06-07T05:04:47.681Z,21.65
2019-06-07T05:07:17.091Z,19.82
2019-06-07T05:09:46.572Z,20.00
2019-06-07T05:12:15.972Z,21.15
2019-06-07T05:14:45.241Z,15.72
2019-06-07T05:17:14.781Z,20.12
2019-06-07T05:19:44.829Z,18.32
2019-06-07T05:22:14.146Z,16.73
2019-06-07T05:24:43.929Z,17.95
2019-06-07T05:27:13.517Z,19.80
2019-06-07T05:29:44.372Z,17.48
2019-06-07T05:32:14.339Z,18.53
2019-06-07T05:34:47.239Z,15.58
2019-06-07T05:37:14.948Z,17.42
2019-06-07T05:39:46.379Z,15.50
2019-06-07T05:42:15.125Z,16.25
2019-06-07T05:44:45.850Z,15.72
2019-06-07T05:47:15.335Z,17.32
2019-06-07T05:49:46.961Z,16.97
2019-06-07T05:52:15.634Z,15.23
2019-06-07T05:54:46.824Z,16.55
2019-06-07T05:57:15.709Z,17.05
2019-06-07T05:59:47.550Z,14.18
2019-06-07T06:02:22.684Z,15.32
2019-06-07T06:04:49.217Z,17.55
2019-06-07T06:07:17.878Z,17.30
2019-06-07T06:09:47.650Z,15.88
2019-06-07T06:12:33.950Z,13.15
2019-06-07T06:14:48.045Z,17.02
2019-06-07T06:17:17.237Z,13.95
2019-06-07T06:19:50.425Z,13.68
2019-06-07T06:22:17.437Z,14.23
2019-06-07T06:25:17.827Z,15.78
2019-06-07T06:29:50.305Z,14.00
2019-06-07T06:34:53.642Z,12.13
2019-06-07T06:37:20.955Z,14.70
2019-06-07T06:39:50.365Z,12.20
2019-06-07T06:42:19.484Z,10.78
2019-06-07T06:44:53.572Z,11.80
2019-06-07T06:47:19.715Z,10.43
2019-06-07T06:49:50.141Z,12.35
2019-06-07T06:52:19.916Z,10.03
2019-06-07T06:54:59.420Z,10.45
2019-06-07T06:57:20.529Z,12.55
2019-06-07T06:59:52.545Z,10.58
2019-06-07T07:02:20.794Z,9.75
2019-06-07T07:04:53.506Z,34.55
2019-06-07T07:07:20.924Z,12.00
2019-06-07T07:09:54.754Z,9.78
2019-06-07T07:12:21.073Z,9.28
2019-06-07T07:14:52.956Z,9.88
2019-06-07T07:17:46.290Z,10.00
2019-06-07T07:19:54.933Z,9.83
2019-06-07T07:22:23.084Z,10.13
2019-06-07T07:24:54.794Z,10.38
2019-06-07T07:27:23.222Z,14.00
2019-06-07T07:30:10.239Z,8.38
2019-06-07T07:32:23.508Z,11.50
2019-06-07T07:35:00.004Z,10.13
2019-06-07T07:37:23.888Z,8.20
2019-06-07T07:40:01.147Z,9.10
2019-06-07T07:42:24.095Z,11.60
2019-06-07T07:44:55.131Z,8.95
2019-06-07T07:47:24.318Z,8.30
2019-06-07T07:49:58.508Z,12.95
2019-06-07T07:52:24.442Z,8.75
2019-06-07T07:54:56.617Z,7.65
2019-06-07T07:57:24.714Z,7.62
2019-06-07T08:00:12.088Z,8.68
2019-06-07T08:02:25.124Z,9.48
2019-06-07T08:05:20.550Z,8.35
2019-06-07T08:07:25.618Z,10.00
2019-06-07T08:09:57.738Z,11.38
2019-06-07T08:12:26.109Z,7.05
2019-06-07T08:14:58.488Z,8.15
2019-06-07T08:17:26.566Z,7.10
2019-06-07T08:19:57.519Z,9.90
2019-06-07T08:22:26.862Z,8.08
2019-06-07T08:24:59.833Z,6.92
2019-06-07T08:27:27.309Z,8.30
2019-06-07T08:30:16.067Z,8.00
2019-06-07T08:32:27.731Z,8.63
2019-06-07T08:35:05.620Z,7.83
2019-06-07T08:40:01.458Z,6.90
2019-06-07T08:42:36.877Z,7.00
2019-06-07T08:45:03.611Z,5.85
2019-06-07T08:47:32.068Z,5.22
2019-06-07T08:50:07.236Z,5.45
2019-06-07T08:52:32.541Z,6.50
2019-06-07T08:55:04.983Z,7.40
2019-06-07T08:57:32.866Z,6.80
2019-06-07T09:00:15.733Z,5.28
2019-06-07T09:05:06.962Z,6.87
2019-06-07T09:07:33.373Z,5.12
2019-06-07T09:10:09.508Z,5.72
2019-06-07T09:15:14.829Z,5.28
2019-06-07T09:17:34.243Z,5.55
2019-06-07T09:20:21.546Z,5.97
2019-06-07T09:22:37.021Z,6.10
2019-06-07T09:25:19.616Z,7.30
2019-06-07T09:27:38.394Z,6.05
2019-06-07T09:30:16.308Z,7.20
2019-06-07T09:32:40.613Z,7.28
2019-06-07T09:35:16.871Z,13.50
2019-06-07T09:38:07.294Z,8.80
2019-06-07T09:40:24.137Z,6.35
2019-06-07T09:42:42.999Z,5.85
2019-06-07T09:45:14.120Z,7.25
2019-06-07T09:47:43.150Z,8.35
2019-06-07T09:50:12.730Z,6.60
2019-06-07T09:52:58.049Z,6.62
2019-06-07T09:55:23.747Z,7.10
2019-06-07T09:57:44.065Z,6.65
2019-06-07T10:00:39.980Z,6.20
2019-06-07T10:02:47.247Z,7.20
2019-06-07T10:05:16.522Z,8.30
2019-06-07T10:08:00.008Z,6.05
2019-06-07T10:12:47.868Z,8.28
2019-06-07T10:15:17.243Z,7.35
2019-06-07T10:17:46.614Z,7.30
2019-06-07T10:20:15.845Z,6.75
2019-06-07T10:22:45.138Z,7.60
2019-06-07T10:25:14.572Z,9.50
2019-06-07T10:27:44.051Z,6.58
2019-06-07T10:30:13.340Z,8.48
2019-06-07T10:32:42.778Z,6.55
2019-06-07T10:35:15.446Z,6.95
2019-06-07T10:37:42.958Z,6.28
2019-06-07T10:40:12.231Z,7.05
2019-06-07T10:42:41.549Z,7.30
2019-06-07T10:45:12.318Z,6.67
2019-06-07T10:47:41.768Z,8.70
2019-06-07T10:50:30.507Z,5.72
2019-06-07T10:52:59.784Z,9.18
2019-06-07T10:55:28.988Z,6.83
2019-06-07T10:57:58.372Z,6.45
2019-06-07T11:00:27.850Z,8.73
2019-06-07T11:02:57.176Z,11.30
2019-06-07T11:05:26.564Z,8.48
2019-06-07T11:07:55.837Z,7.70
2019-06-07T11:10:25.230Z,6.67
2019-06-07T11:12:54.565Z,6.62
2019-06-07T11:15:23.804Z,6.97
2019-06-07T11:17:53.207Z,6.97
2019-06-07T11:20:22.488Z,6.10
2019-06-07T11:22:51.892Z,6.62
2019-06-07T11:25:21.233Z,6.33
2019-06-07T11:27:50.506Z,6.35
2019-06-07T11:30:19.964Z,6.92
2019-06-07T11:32:49.195Z,6.40
2019-06-07T11:35:19.148Z,5.75
2019-06-07T11:37:48.656Z,5.62
2019-06-07T11:40:34.006Z,5.58
2019-06-07T11:42:52.779Z,5.80
2019-06-07T11:45:21.174Z,5.67
2019-06-07T11:47:50.674Z,6.12
2019-06-07T11:50:19.926Z,6.17
2019-06-07T11:52:49.180Z,5.90
2019-06-07T11:55:19.103Z,7.97
2019-06-07T11:57:50.222Z,5.90
2019-06-07T12:00:20.745Z,7.30
2019-06-07T12:02:50.019Z,7.70
2019-06-07T12:05:20.382Z,4.87
2019-06-07T12:07:49.761Z,4.65
2019-06-07T12:10:22.864Z,4.22
2019-06-07T12:12:50.582Z,4.62
2019-06-07T12:15:19.829Z,5.22
2019-06-07T12:17:49.130Z,6.78
2019-06-07T12:20:20.798Z,4.78
2019-06-07T12:22:49.438Z,5.42
2019-06-07T12:25:24.293Z,6.35
2019-06-07T12:27:49.857Z,5.22
2019-06-07T12:30:26.014Z,6.25
2019-06-07T12:32:50.431Z,4.70
2019-06-07T12:35:20.011Z,6.10
2019-06-07T12:37:49.316Z,5.33
2019-06-07T12:40:27.766Z,5.45
2019-06-07T12:42:49.540Z,5.92
2019-06-07T12:45:40.179Z,5.22
2019-06-07T12:47:49.907Z,6.65
2019-06-07T12:50:19.727Z,5.25
2019-06-07T12:52:48.923Z,5.78
2019-06-07T12:55:20.289Z,5.72
2019-06-07T12:57:49.405Z,7.22
2019-06-07T13:00:20.135Z,6.33
2019-06-07T13:02:49.817Z,5.72
2019-06-07T13:05:19.954Z,7.75
2019-06-07T13:07:49.466Z,7.47
2019-06-07T13:10:20.037Z,6.50
2019-06-07T13:12:49.523Z,5.12
2019-06-07T13:15:21.856Z,5.40
2019-06-07T13:17:50.012Z,7.72
2019-06-07T13:20:20.405Z,5.70
2019-06-07T13:22:49.989Z,5.35
2019-06-07T13:25:21.242Z,5.05
2019-06-07T13:27:50.321Z,4.83
2019-06-07T13:30:21.037Z,4.40
2019-06-07T13:32:50.401Z,5.20
2019-06-07T13:35:21.926Z,7.15
2019-06-07T13:37:50.831Z,5.40
2019-06-07T13:40:21.255Z,6.40
2019-06-07T13:42:51.137Z,5.33
2019-06-07T13:45:22.153Z,4.87
2019-06-07T13:47:51.885Z,5.65
2019-06-07T13:50:21.716Z,6.50
2019-06-07T13:52:51.154Z,5.50
2019-06-07T13:55:21.846Z,5.47
2019-06-07T13:57:51.120Z,7.62
2019-06-07T14:00:22.707Z,5.42
2019-06-07T14:02:51.597Z,8.63
2019-06-07T14:05:23.041Z,6.37
2019-06-07T14:07:52.392Z,6.00
2019-06-07T14:10:21.776Z,5.78
2019-06-07T14:12:51.089Z,5.87
2019-06-07T14:15:20.952Z,6.00
2019-06-07T14:17:51.994Z,6.55
2019-06-07T14:23:14.673Z,4.67
2019-06-07T14:25:43.915Z,5.10
2019-06-07T14:28:13.089Z,5.65
2019-06-07T14:30:42.537Z,5.35
2019-06-07T14:33:11.709Z,4.97
2019-06-07T14:35:41.016Z,5.85
2019-06-07T14:38:10.193Z,5.58
2019-06-07T14:40:39.388Z,4.92
2019-06-07T14:43:08.690Z,6.05
2019-06-07T14:45:37.874Z,5.33
2019-06-07T14:48:08.718Z,5.35
2019-06-07T14:50:37.929Z,5.80
2019-06-07T14:53:07.175Z,5.92
2019-06-07T14:55:36.414Z,5.40
2019-06-07T14:58:05.636Z,6.33
2019-06-07T15:00:40.125Z,6.97
2019-06-07T15:03:09.411Z,6.33
2019-06-07T15:05:40.477Z,8.28
2019-06-07T15:08:09.613Z,7.85
2019-06-07T15:10:39.463Z,8.08
2019-06-07T15:13:08.798Z,6.67
2019-06-07T15:15:39.755Z,10.35
2019-06-07T15:18:10.581Z,6.45
2019-06-07T15:20:39.866Z,11.23
2019-06-07T15:23:10.798Z,6.95
2019-06-07T15:25:40.252Z,4.70
2019-06-07T15:28:10.066Z,8.20
2019-06-07T15:30:40.106Z,5.50
2019-06-07T15:33:09.583Z,11.15
2019-06-07T15:35:39.206Z,11.35
2019-06-07T15:38:08.582Z,5.75
2019-06-07T15:40:39.465Z,7.45
2019-06-07T15:43:10.623Z,5.35
2019-06-07T15:45:40.002Z,6.07
2019-06-07T15:48:11.003Z,5.95
2019-06-07T15:50:40.585Z,5.80
2019-06-07T15:53:09.935Z,5.45
2019-06-07T15:55:45.085Z,7.70
2019-06-07T15:58:12.375Z,8.80
2019-06-07T16:00:42.604Z,7.12
2019-06-07T16:03:12.118Z,5.53
2019-06-07T16:05:41.568Z,7.05
2019-06-07T16:08:10.921Z,6.80
2019-06-07T16:10:40.962Z,6.45
2019-06-07T16:13:10.434Z,5.25
2019-06-07T16:15:41.370Z,16.10
2019-06-07T16:18:11.166Z,6.60
2019-06-07T16:20:41.509Z,5.42
2019-06-07T16:23:10.773Z,4.85
2019-06-07T16:25:40.213Z,5.67
2019-06-07T16:28:09.414Z,5.87
2019-06-07T16:30:38.662Z,5.42
2019-06-07T16:33:07.942Z,5.58
2019-06-07T16:35:37.119Z,5.30
2019-06-07T16:38:06.342Z,5.00
2019-06-07T16:40:36.399Z,7.83
2019-06-07T16:43:16.893Z,18.60
2019-06-07T16:45:36.613Z,5.17
2019-06-07T16:48:05.863Z,5.50
2019-06-07T16:50:36.684Z,6.17
2019-06-07T16:53:06.087Z,5.37
2019-06-07T16:55:36.489Z,7.25
2019-06-07T16:58:05.695Z,9.90
2019-06-07T17:00:35.376Z,5.55
2019-06-07T17:03:05.285Z,6.85
2019-06-07T17:05:34.512Z,6.58
2019-06-07T17:08:03.758Z,5.58
2019-06-07T17:10:32.931Z,5.45
2019-06-07T17:13:02.499Z,6.58
2019-06-07T17:15:32.068Z,6.87
2019-06-07T17:18:02.182Z,12.90
2019-06-07T17:20:31.521Z,8.63
2019-06-07T17:23:01.201Z,7.90
2019-06-07T17:25:31.716Z,11.15
2019-06-07T17:28:01.921Z,8.45
2019-06-07T17:30:31.657Z,10.08
2019-06-07T17:33:00.984Z,7.55
2019-06-07T17:35:30.273Z,14.07
2019-06-07T17:37:59.542Z,13.20
2019-06-07T17:40:28.838Z,9.00
2019-06-07T17:42:58.032Z,12.25
2019-06-07T17:45:27.297Z,10.23
2019-06-07T17:47:56.711Z,17.37
2019-06-07T17:50:26.061Z,10.58
2019-06-07T17:52:55.448Z,22.67
2019-06-07T17:55:24.908Z,17.90
2019-06-07T17:57:54.321Z,22.65
2019-06-07T18:00:28.510Z,23.35
2019-06-07T18:02:55.040Z,13.43
2019-06-07T18:05:24.353Z,12.85
2019-06-07T18:07:53.977Z,9.98
2019-06-07T18:10:38.093Z,14.05
2019-06-07T18:13:07.428Z,14.03
2019-06-07T18:15:46.324Z,17.85
2019-06-07T18:18:15.817Z,11.50
2019-06-07T18:20:45.175Z,12.45
2019-06-07T18:23:14.554Z,14.53
2019-06-07T18:25:43.881Z,13.55
2019-06-07T18:28:13.771Z,6.37
2019-06-07T18:30:43.073Z,8.68
2019-06-07T18:33:12.333Z,218.63
2019-06-07T18:35:41.859Z,50.65
2019-06-07T18:38:11.282Z,13.98
2019-06-07T18:40:41.942Z,15.10
2019-06-07T18:43:11.552Z,23.87
2019-06-07T18:45:42.724Z,19.75
2019-06-07T18:48:11.981Z,13.07
2019-06-07T18:50:41.307Z,17.20
2019-06-07T18:53:10.646Z,11.33
2019-06-07T18:55:42.021Z,12.90
2019-06-07T18:58:11.354Z,19.75
2019-06-07T19:00:40.860Z,41.02
2019-06-07T19:03:10.129Z,107.75
2019-06-07T19:05:39.338Z,229.93
2019-06-07T19:08:08.716Z,102.27
2019-06-07T19:10:38.063Z,38.50
2019-06-07T19:13:07.451Z,45.35
2019-06-07T19:15:36.888Z,20.50
2019-06-07T19:18:06.366Z,103.32
2019-06-07T19:20:35.854Z,147.15
2019-06-07T19:23:05.442Z,77.70
2019-06-07T19:25:35.035Z,36.45
2019-06-07T19:28:04.582Z,66.77
2019-06-07T19:30:34.435Z,44.33
2019-06-07T19:33:03.883Z,28.57
2019-06-07T19:35:33.515Z,36.33
2019-06-07T19:38:02.755Z,32.70
2019-06-07T19:40:32.198Z,13.40
2019-06-07T19:43:03.916Z,25.00
2019-06-07T19:45:32.296Z,19.45
2019-06-07T19:48:02.687Z,35.95
2019-06-07T19:50:32.094Z,34.90
2019-06-07T19:53:01.415Z,30.82
2019-06-07T19:55:30.629Z,18.02
2019-06-07T19:57:59.884Z,32.25
2019-06-07T20:00:29.170Z,30.12
2019-06-07T20:02:58.399Z,29.18
2019-06-07T20:05:27.718Z,28.27
2019-06-07T20:07:58.414Z,25.80
2019-06-07T20:10:27.912Z,18.87
2019-06-07T20:12:58.563Z,27.10
2019-06-07T20:15:29.555Z,33.95
2019-06-07T20:17:59.323Z,23.65
2019-06-07T20:20:30.099Z,21.95
2019-06-07T20:23:00.830Z,19.30
2019-06-07T20:25:30.251Z,24.63
2019-06-07T20:27:59.737Z,16.77
2019-06-07T20:30:29.848Z,24.10
2019-06-07T20:32:59.817Z,36.60
2019-06-07T20:35:29.322Z,35.95
2019-06-07T20:37:58.920Z,31.17
2019-06-07T20:40:28.264Z,35.90
2019-06-07T20:42:57.848Z,23.87
2019-06-07T20:45:33.645Z,40.67
2019-06-07T20:47:58.251Z,33.05
2019-06-07T20:50:27.656Z,25.82
2019-06-07T20:52:59.377Z,39.98
2019-06-07T20:55:27.837Z,33.60
2019-06-07T20:57:57.049Z,17.00
2019-06-07T21:00:26.291Z,15.83
2019-06-07T21:02:55.514Z,22.80
2019-06-07T21:05:24.819Z,23.00
2019-06-07T21:07:53.994Z,19.15
2019-06-07T21:10:23.650Z,14.20
2019-06-07T21:12:52.882Z,17.52
2019-06-07T21:15:22.155Z,17.10
2019-06-07T21:17:51.560Z,18.73
2019-06-07T21:20:20.743Z,18.73
2019-06-07T21:22:49.943Z,18.45
2019-06-07T21:25:19.137Z,19.90
2019-06-07T21:27:48.389Z,22.20
2019-06-07T21:30:17.696Z,21.37
2019-06-07T21:32:46.950Z,38.67
2019-06-07T21:35:16.858Z,46.53
2019-06-07T21:37:46.077Z,34.15
2019-06-07T21:40:15.450Z,36.35
2019-06-07T21:42:44.633Z,21.35
2019-06-07T21:45:15.358Z,21.40
2019-06-07T21:47:44.662Z,25.25
2019-06-07T21:50:17.428Z,28.67
2019-06-07T21:52:46.841Z,30.48
2019-06-07T21:55:16.149Z,25.45
2019-06-07T21:57:47.137Z,24.82
2019-06-07T22:00:18.799Z,20.12
2019-06-07T22:02:48.182Z,20.27
2019-06-07T22:05:17.436Z,18.00
2019-06-07T22:07:46.748Z,15.38
2019-06-07T22:10:16.196Z,16.62
2019-06-07T22:12:45.545Z,20.40
2019-06-07T22:15:32.115Z,20.65
2019-06-07T22:17:47.466Z,17.40
2019-06-07T22:20:16.857Z,15.75
2019-06-07T22:22:46.180Z,19.48
2019-06-07T22:25:15.572Z,17.77
2019-06-07T22:27:45.004Z,24.75
2019-06-07T22:30:14.557Z,22.10
2019-06-07T22:32:44.047Z,15.35
2019-06-07T22:35:13.442Z,14.75
2019-06-07T22:37:42.620Z,19.32
2019-06-07T22:40:12.535Z,16.30
2019-06-07T22:42:42.005Z,17.55
2019-06-07T22:45:11.282Z,13.55
2019-06-07T22:47:40.687Z,16.97
2019-06-07T22:50:10.872Z,19.17
2019-06-07T22:52:40.481Z,15.93
2019-06-07T22:55:10.322Z,17.73
2019-06-07T22:57:57.634Z,21.05
2019-06-07T23:00:28.515Z,16.45
2019-06-07T23:02:57.797Z,13.90
2019-06-07T23:05:27.218Z,16.77
2019-06-07T23:07:56.601Z,17.20
2019-06-07T23:10:25.925Z,20.40
2019-06-07T23:12:55.218Z,18.95
2019-06-07T23:15:24.630Z,23.07
2019-06-07T23:17:53.824Z,20.37
2019-06-07T23:20:23.143Z,18.37
2019-06-07T23:22:54.560Z,16.23
2019-06-07T23:25:24.880Z,17.35
2019-06-07T23:27:54.216Z,16.93
2019-06-07T23:30:23.396Z,16.17
2019-06-07T23:32:52.686Z,15.25
2019-06-07T23:35:22.136Z,15.55
2019-06-07T23:37:52.737Z,19.10
2019-06-07T23:40:22.038Z,18.37
2019-06-07T23:42:51.369Z,17.73
2019-06-07T23:45:21.714Z,18.60
2019-06-07T23:47:51.093Z,24.18
2019-06-07T23:50:20.265Z,19.95
2019-06-07T23:52:49.990Z,29.92
2019-06-07T23:55:20.092Z,23.22
2019-06-07T23:57:49.667Z,25.10
